Time;durP1;ratioP1;P1;durP2;ratioP2;P2;SDS_P1;SDS_P2;PMS_P1;PMS_P2;Temp;Humidity;BMP_temperature;BMP_pressure;BME280_temperature;BME280_humidity;BME280_pressure;Samples;Min_cycle;Max_cycle;Signal;HPM_P1;HPM_P2
2022/09/22 00:01:10;;;;;;;2.73;1.83;;;8.40;97.30;;;;;;5024730;28;20446;-92
2022/09/22 00:03:39;;;;;;;4.47;2.40;;;8.40;97.30;;;;;;5035111;28;20533;-92
2022/09/22 00:06:36;;;;;;;2.97;1.93;;;8.40;97.30;;;;;;5019186;28;20434;-93
2022/09/22 00:09:04;;;;;;;2.50;2.07;;;8.40;97.30;;;;;;5018652;28;20474;-91
2022/09/22 00:11:35;;;;;;;3.00;2.53;;;8.40;97.30;;;;;;5036361;28;21024;-90
2022/09/22 00:14:10;;;;;;;2.77;2.30;;;8.40;97.30;;;;;;5018449;28;20415;-90
2022/09/22 00:16:44;;;;;;;3.33;2.50;;;8.40;97.30;;;;;;5018216;28;20421;-92
2022/09/22 00:19:14;;;;;;;3.57;3.37;;;8.40;97.30;;;;;;5016836;28;20844;-92
2022/09/22 00:21:41;;;;;;;2.23;1.83;;;8.40;97.30;;;;;;5034882;28;20438;-91
2022/09/22 00:24:06;;;;;;;4.43;1.97;;;8.40;97.30;;;;;;5018309;28;20779;-92
2022/09/22 00:26:36;;;;;;;1.80;1.70;;;8.30;97.30;;;;;;5011624;28;20420;-92
2022/09/22 00:29:03;;;;;;;3.13;2.60;;;8.30;97.30;;;;;;5018097;28;20200;-92
2022/09/22 00:31:29;;;;;;;8.83;2.70;;;8.30;97.30;;;;;;5034692;28;20435;-92
2022/09/22 00:33:55;;;;;;;4.10;2.57;;;8.30;97.30;;;;;;5017114;28;20782;-92
2022/09/22 00:36:24;;;;;;;2.27;2.07;;;8.30;97.30;;;;;;5031627;28;20469;-92
2022/09/22 00:38:51;;;;;;;1.73;1.63;;;8.30;97.30;;;;;;5034413;28;20261;-91
2022/09/22 00:41:26;;;;;;;2.53;2.33;;;8.30;97.30;;;;;;5030643;28;20431;-92
2022/09/22 00:44:20;;;;;;;2.67;2.40;;;8.30;97.30;;;;;;5017895;28;20445;-91
2022/09/22 00:46:51;;;;;;;2.03;1.93;;;8.30;97.30;;;;;;5024372;28;20515;-93
2022/09/22 00:49:21;;;;;;;2.70;1.80;;;8.30;97.30;;;;;;5017727;28;20515;-91
2022/09/22 00:51:47;;;;;;;3.53;3.33;;;8.30;97.30;;;;;;5017781;28;20427;-90
2022/09/22 00:54:16;;;;;;;3.53;2.97;;;8.30;97.30;;;;;;5018404;28;20420;-92
2022/09/22 00:56:56;;;;;;;2.53;2.33;;;8.30;97.30;;;;;;5017595;28;20427;-92
2022/09/22 00:59:24;;;;;;;3.57;2.23;;;8.30;97.30;;;;;;5021779;28;20987;-91
2022/09/22 01:01:50;;;;;;;2.00;1.90;;;8.30;97.30;;;;;;5027382;28;20446;-92
2022/09/22 01:04:19;;;;;;;3.50;3.17;;;8.30;97.30;;;;;;5019840;28;20424;-92
2022/09/22 01:06:45;;;;;;;2.03;1.93;;;8.30;97.30;;;;;;5007124;28;20427;-90
2022/09/22 01:09:12;;;;;;;6.50;3.10;;;8.30;97.30;;;;;;5017517;28;20447;-91
2022/09/22 01:11:38;;;;;;;3.43;2.83;;;8.30;97.30;;;;;;5017418;28;20480;-90
2022/09/22 01:14:35;;;;;;;2.60;2.27;;;8.40;97.30;;;;;;5017797;28;20438;-92
2022/09/22 01:17:30;;;;;;;2.57;2.23;;;8.40;97.30;;;;;;5017862;28;20510;-92
2022/09/22 01:20:26;;;;;;;5.47;3.93;;;8.40;97.30;;;;;;5037260;23;20491;-90
2022/09/22 01:23:24;;;;;;;3.87;2.63;;;8.40;97.30;;;;;;5030264;28;20415;-92
2022/09/22 01:26:20;;;;;;;2.43;2.23;;;8.40;97.30;;;;;;5014122;28;20987;-90
2022/09/22 01:29:36;;;;;;;6.47;4.47;;;8.40;97.30;;;;;;5017438;28;20558;-89
2022/09/22 01:32:16;;;;;;;4.73;4.40;;;8.50;97.30;;;;;;5017338;28;20416;-90
2022/09/22 01:35:16;;;;;;;1.80;1.70;;;8.50;97.30;;;;;;5017246;28;20415;-90
2022/09/22 01:38:00;;;;;;;2.83;2.03;;;8.50;97.30;;;;;;5017728;28;20430;-90
2022/09/22 01:40:47;;;;;;;2.40;2.20;;;8.50;97.30;;;;;;5033145;28;20422;-89
2022/09/22 01:43:36;;;;;;;5.17;3.57;;;8.60;97.30;;;;;;5016581;28;20953;-91
2022/09/22 01:46:06;;;;;;;3.13;1.93;;;8.60;97.30;;;;;;5016492;28;20455;-89
2022/09/22 01:48:35;;;;;;;4.53;3.63;;;8.60;97.30;;;;;;5033884;28;20593;-89
2022/09/22 01:51:08;;;;;;;4.20;2.80;;;8.60;97.30;;;;;;5016325;28;20423;-90
2022/09/22 01:53:41;;;;;;;1.90;1.80;;;8.60;97.30;;;;;;5026886;28;20437;-90
2022/09/22 01:56:09;;;;;;;3.53;3.30;;;8.50;97.30;;;;;;5017593;28;20423;-90
2022/09/22 01:58:43;;;;;;;2.67;2.40;;;8.50;97.30;;;;;;5017035;28;20813;-89
2022/09/22 02:01:14;;;;;;;2.00;1.90;;;8.40;97.30;;;;;;5033172;28;20411;-89
2022/09/22 02:03:49;;;;;;;4.47;3.63;;;8.40;97.30;;;;;;5034118;28;20441;-90
2022/09/22 02:06:23;;;;;;;2.30;2.10;;;8.40;97.30;;;;;;5016617;28;20510;-91
2022/09/22 02:09:01;;;;;;;4.43;3.63;;;8.40;97.30;;;;;;5033395;28;20546;-90
2022/09/22 02:11:30;;;;;;;7.97;3.07;;;8.30;97.30;;;;;;5017115;28;20411;-90
2022/09/22 02:13:56;;;;;;;3.60;3.40;;;8.30;97.30;;;;;;5016852;28;20439;-90
2022/09/22 02:16:23;;;;;;;3.10;2.90;;;8.20;97.30;;;;;;5016533;28;20794;-90
2022/09/22 02:19:35;;;;;;;5.63;3.07;;;8.20;97.30;;;;;;5031025;28;20228;-89
2022/09/22 02:22:05;;;;;;;2.93;2.73;;;8.20;97.30;;;;;;5028481;28;20470;-90
2022/09/22 02:24:40;;;;;;;3.50;3.20;;;8.10;97.30;;;;;;5025772;28;20429;-90
2022/09/22 02:27:41;;;;;;;3.73;3.13;;;8.10;97.30;;;;;;5042611;28;20450;-90
2022/09/22 02:30:10;;;;;;;4.60;2.20;;;8.10;97.30;;;;;;4978888;28;20485;-89
2022/09/22 02:32:44;;;;;;;3.30;2.40;;;8.10;97.30;;;;;;4992513;28;20424;-90
2022/09/22 02:35:10;;;;;;;2.13;1.60;;;8.00;97.30;;;;;;4976405;28;20799;-90
2022/09/22 02:37:49;;;;;;;4.80;2.90;;;8.00;97.30;;;;;;5003315;28;20415;-90
2022/09/22 02:40:24;;;;;;;2.20;2.00;;;8.00;97.30;;;;;;5025347;28;20184;-91
2022/09/22 02:43:15;;;;;;;8.27;4.70;;;8.00;97.30;;;;;;5017189;28;20422;-91
2022/09/22 02:46:01;;;;;;;2.43;2.30;;;8.00;97.30;;;;;;5023792;28;20488;-91
2022/09/22 02:48:46;;;;;;;4.40;1.90;;;8.00;97.30;;;;;;5017669;28;20455;-91
2022/09/22 02:51:17;;;;;;;6.60;3.17;;;8.00;97.30;;;;;;5025590;28;21253;-91
2022/09/22 02:53:45;;;;;;;2.87;2.40;;;8.00;97.30;;;;;;5013560;28;20414;-91
2022/09/22 02:56:11;;;;;;;3.57;3.37;;;7.90;97.30;;;;;;5015797;28;20905;-90
2022/09/22 02:58:37;;;;;;;2.90;2.70;;;7.90;97.30;;;;;;5016377;28;20580;-90
2022/09/22 03:01:04;;;;;;;2.30;2.10;;;7.80;97.30;;;;;;5032908;28;20449;-90
2022/09/22 03:03:30;;;;;;;2.47;2.27;;;7.70;97.30;;;;;;5016111;28;20187;-91
2022/09/22 03:05:55;;;;;;;2.73;1.80;;;7.70;97.30;;;;;;5032986;28;20786;-91
2022/09/22 03:08:21;;;;;;;3.30;2.77;;;7.70;97.30;;;;;;5023228;28;20223;-91
2022/09/22 03:10:46;;;;;;;2.13;1.73;;;7.60;97.30;;;;;;5015635;28;20534;-91
2022/09/22 03:13:12;;;;;;;6.80;3.27;;;7.60;97.30;;;;;;5029149;28;20225;-91
2022/09/22 03:15:37;;;;;;;2.40;2.20;;;7.60;97.30;;;;;;5011473;28;20169;-91
2022/09/22 03:18:03;;;;;;;2.77;2.57;;;7.60;97.30;;;;;;5029345;28;20176;-91
2022/09/22 03:20:29;;;;;;;1.80;1.70;;;7.50;97.30;;;;;;5016174;28;20224;-91
2022/09/22 03:22:54;;;;;;;3.77;2.70;;;7.50;97.30;;;;;;5035310;28;20171;-91
2022/09/22 03:25:20;;;;;;;1.67;1.40;;;7.50;97.30;;;;;;5037619;28;20158;-93
2022/09/22 03:27:46;;;;;;;1.87;1.70;;;7.50;97.30;;;;;;5050315;28;20208;-90
2022/09/22 03:30:15;;;;;;;2.30;2.10;;;7.50;97.30;;;;;;5028245;28;20205;-91
2022/09/22 03:32:40;;;;;;;3.13;2.10;;;7.50;97.30;;;;;;5032913;28;20422;-91
2022/09/22 03:35:07;;;;;;;2.47;2.17;;;7.50;97.30;;;;;;5016210;28;20426;-91
2022/09/22 03:37:33;;;;;;;4.53;2.27;;;7.50;97.30;;;;;;5013198;28;20170;-90
2022/09/22 03:39:59;;;;;;;1.90;1.87;;;7.50;97.30;;;;;;5013347;28;20493;-91
2022/09/22 03:42:24;;;;;;;2.43;1.87;;;7.40;97.30;;;;;;5014960;28;20408;-92
2022/09/22 03:44:50;;;;;;;4.13;2.47;;;7.40;97.30;;;;;;5024758;28;20194;-90
2022/09/22 03:47:16;;;;;;;2.20;2.00;;;7.40;97.30;;;;;;5027927;28;20200;-91
2022/09/22 03:49:41;;;;;;;2.40;2.20;;;7.40;97.30;;;;;;5035311;28;20200;-91
2022/09/22 03:52:07;;;;;;;2.40;2.20;;;7.40;97.30;;;;;;5022204;28;20173;-89
2022/09/22 03:54:35;;;;;;;1.83;1.80;;;7.40;97.30;;;;;;5013774;28;20180;-90
2022/09/22 03:57:01;;;;;;;1.77;1.60;;;7.30;97.30;;;;;;5029283;28;20188;-91
2022/09/22 03:59:30;;;;;;;3.77;3.17;;;7.30;97.30;;;;;;5021413;28;20496;-91
2022/09/22 04:01:55;;;;;;;3.70;2.13;;;7.30;97.30;;;;;;5021033;28;20444;-92
2022/09/22 04:04:21;;;;;;;3.13;2.93;;;7.30;97.30;;;;;;5022051;28;20442;-90
2022/09/22 04:06:47;;;;;;;6.20;2.50;;;7.30;97.30;;;;;;5035215;28;20251;-91
2022/09/22 04:09:17;;;;;;;3.10;2.07;;;7.20;97.30;;;;;;5019127;28;20196;-92
2022/09/22 04:11:45;;;;;;;4.20;2.20;;;7.20;97.30;;;;;;5021681;28;20176;-91
2022/09/22 04:14:11;;;;;;;2.10;1.90;;;7.10;97.30;;;;;;5034947;28;20419;-91
2022/09/22 04:16:41;;;;;;;1.93;1.83;;;7.00;97.30;;;;;;5023765;28;20416;-91
2022/09/22 04:19:12;;;;;;;1.90;1.80;;;7.00;97.30;;;;;;5035437;28;20527;-90
2022/09/22 04:21:40;;;;;;;3.13;2.63;;;6.90;97.30;;;;;;5018964;28;20419;-91
2022/09/22 04:24:10;;;;;;;1.67;1.57;;;6.90;97.30;;;;;;5030273;28;20427;-91
2022/09/22 04:26:39;;;;;;;2.27;1.60;;;6.80;97.30;;;;;;5034751;28;20437;-91
2022/09/22 04:29:05;;;;;;;2.37;2.17;;;6.90;97.30;;;;;;5035355;28;20824;-91
2022/09/22 04:31:30;;;;;;;2.23;2.10;;;6.90;97.30;;;;;;5018672;28;20451;-90
2022/09/22 04:33:56;;;;;;;3.20;2.23;;;6.90;97.30;;;;;;5018909;28;20176;-91
2022/09/22 04:36:22;;;;;;;2.70;1.67;;;6.90;97.30;;;;;;5042709;28;20199;-89
2022/09/22 04:38:49;;;;;;;2.57;2.00;;;6.90;97.30;;;;;;5018748;28;20290;-90
2022/09/22 04:41:15;;;;;;;6.23;3.37;;;6.90;97.30;;;;;;5015994;28;20176;-91
2022/09/22 04:43:41;;;;;;;3.80;2.47;;;6.90;97.30;;;;;;5023661;28;20420;-91
2022/09/22 04:46:06;;;;;;;2.03;1.90;;;6.90;97.30;;;;;;5019178;28;20264;-91
2022/09/22 04:48:35;;;;;;;4.13;2.83;;;6.90;97.30;;;;;;5037410;28;20520;-91
2022/09/22 04:51:00;;;;;;;2.23;2.07;;;6.90;97.30;;;;;;5035721;28;20169;-91
2022/09/22 04:53:26;;;;;;;3.50;2.53;;;6.90;97.30;;;;;;5035955;28;20418;-92
2022/09/22 04:55:55;;;;;;;2.50;2.30;;;6.90;97.30;;;;;;5019536;28;20226;-91
2022/09/22 04:58:21;;;;;;;2.30;1.90;;;6.90;97.30;;;;;;5036713;28;20287;-91
2022/09/22 05:00:53;;;;;;;2.87;2.70;;;6.80;97.30;;;;;;5036295;28;20451;-91
2022/09/22 05:03:19;;;;;;;5.43;4.93;;;6.80;97.30;;;;;;5013794;28;20457;-91
2022/09/22 05:05:46;;;;;;;3.27;2.33;;;6.70;97.30;;;;;;5035792;28;20407;-91
2022/09/22 05:08:12;;;;;;;1.50;1.40;;;6.70;97.30;;;;;;5035220;28;20208;-90
2022/09/22 05:10:41;;;;;;;1.40;1.30;;;6.60;97.30;;;;;;5016869;28;20424;-90
2022/09/22 05:13:06;;;;;;;2.90;2.03;;;6.60;97.30;;;;;;5020217;28;20980;-91
2022/09/22 05:15:36;;;;;;;3.90;2.17;;;6.60;97.30;;;;;;5038525;28;20406;-90
2022/09/22 05:18:01;;;;;;;1.20;1.10;;;6.50;97.30;;;;;;5023425;28;20180;-93
2022/09/22 05:20:30;;;;;;;2.23;1.70;;;6.50;97.30;;;;;;5035380;28;20447;-91
2022/09/22 05:22:55;;;;;;;2.00;1.90;;;6.50;97.30;;;;;;5014890;28;20192;-90
2022/09/22 05:25:21;;;;;;;4.33;3.23;;;6.50;97.30;;;;;;5045359;28;20745;-93
2022/09/22 05:27:48;;;;;;;2.33;2.13;;;6.50;97.30;;;;;;5038382;28;20216;-92
2022/09/22 05:30:14;;;;;;;1.70;1.60;;;6.50;97.30;;;;;;5038056;28;20184;-93
2022/09/22 05:32:44;;;;;;;2.47;2.27;;;6.40;97.30;;;;;;5054415;28;20430;-94
2022/09/22 05:35:14;;;;;;;1.67;1.57;;;6.50;97.30;;;;;;5033429;28;20450;-90
2022/09/22 05:37:44;;;;;;;2.77;2.00;;;6.50;97.30;;;;;;5014818;28;20459;-90
2022/09/22 05:40:13;;;;;;;1.83;1.73;;;6.50;97.30;;;;;;5014341;28;20447;-90
2022/09/22 05:42:45;;;;;;;1.63;1.53;;;6.50;97.30;;;;;;5014231;28;20449;-91
2022/09/22 05:45:14;;;;;;;2.87;2.67;;;6.50;97.30;;;;;;5014684;28;20568;-90
2022/09/22 05:48:02;;;;;;;1.50;1.50;;;6.50;97.30;;;;;;5001113;28;20508;-90
2022/09/22 05:50:35;;;;;;;3.53;2.50;;;6.50;97.30;;;;;;5013775;28;20424;-91
2022/09/22 05:53:05;;;;;;;1.80;1.70;;;6.60;97.30;;;;;;5014218;28;20791;-91
2022/09/22 05:55:34;;;;;;;2.90;2.70;;;6.60;97.30;;;;;;5031544;28;20423;-91
2022/09/22 05:58:03;;;;;;;2.00;1.77;;;6.60;97.30;;;;;;5014067;28;20434;-90
2022/09/22 06:00:46;;;;;;;2.90;2.33;;;6.60;97.30;;;;;;5013848;28;20424;-91
2022/09/22 06:03:13;;;;;;;3.37;2.33;;;6.70;97.30;;;;;;4995085;28;20499;-91
2022/09/22 06:05:47;;;;;;;2.83;2.63;;;6.70;97.30;;;;;;5008081;28;20419;-91
2022/09/22 06:08:12;;;;;;;2.13;1.97;;;6.80;97.30;;;;;;5032118;28;20451;-90
2022/09/22 06:10:44;;;;;;;1.60;1.53;;;6.90;97.30;;;;;;5014582;28;20431;-90
2022/09/22 06:13:12;;;;;;;1.47;1.40;;;6.90;97.30;;;;;;5014564;28;20264;-91
2022/09/22 06:15:47;;;;;;;2.20;2.00;;;6.90;97.30;;;;;;5025063;28;20424;-91
2022/09/22 06:18:13;;;;;;;1.57;1.50;;;7.00;97.30;;;;;;5010756;28;20466;-92
2022/09/22 06:20:45;;;;;;;3.70;1.80;;;7.10;97.30;;;;;;5013771;28;20470;-91
2022/09/22 06:23:14;;;;;;;3.63;2.40;;;7.10;97.30;;;;;;5013020;28;20284;-93
2022/09/22 06:25:42;;;;;;;3.63;3.43;;;7.20;97.30;;;;;;5014012;28;20480;-91
2022/09/22 06:28:12;;;;;;;3.80;3.60;;;7.20;97.30;;;;;;5013403;28;20462;-91
2022/09/22 06:30:39;;;;;;;3.83;2.53;;;7.30;97.30;;;;;;5010652;28;20423;-90
2022/09/22 06:33:08;;;;;;;2.73;2.03;;;7.30;97.30;;;;;;5003207;28;20416;-91
2022/09/22 06:35:37;;;;;;;4.33;2.60;;;7.40;97.30;;;;;;5029970;28;20494;-92
2022/09/22 06:38:04;;;;;;;3.43;3.23;;;7.50;97.30;;;;;;5029913;28;20415;-91
2022/09/22 06:40:31;;;;;;;4.60;3.00;;;7.60;97.30;;;;;;5013787;28;20419;-91
2022/09/22 06:43:10;;;;;;;3.57;2.57;;;7.70;97.30;;;;;;5013148;28;20420;-91
2022/09/22 06:45:36;;;;;;;4.13;3.47;;;7.80;97.30;;;;;;5013465;28;20994;-90
2022/09/22 06:48:01;;;;;;;3.07;2.50;;;7.90;97.30;;;;;;5012499;28;20456;-90
2022/09/22 06:50:31;;;;;;;5.53;2.03;;;8.00;97.30;;;;;;5013585;28;20731;-91
2022/09/22 06:53:01;;;;;;;6.70;2.90;;;8.00;97.30;;;;;;5013485;28;20172;-90
2022/09/22 06:55:28;;;;;;;4.03;3.00;;;8.10;97.30;;;;;;5013708;28;20628;-91
2022/09/22 06:57:58;;;;;;;3.27;1.97;;;8.20;97.30;;;;;;5013051;28;20945;-91
2022/09/22 07:00:31;;;;;;;2.37;2.17;;;8.30;97.30;;;;;;5013620;28;20431;-91
2022/09/22 07:03:21;;;;;;;3.97;2.70;;;8.40;97.30;;;;;;5000881;28;20446;-91
2022/09/22 07:06:05;;;;;;;3.00;2.23;;;8.50;97.30;;;;;;5017576;28;20426;-90
2022/09/22 07:08:33;;;;;;;3.43;2.83;;;8.60;97.30;;;;;;5019010;28;20458;-91
2022/09/22 07:11:01;;;;;;;1.90;1.80;;;8.70;97.30;;;;;;5013710;28;20427;-90
2022/09/22 07:13:28;;;;;;;3.13;2.50;;;8.80;97.30;;;;;;5016188;28;20423;-90
2022/09/22 07:16:08;;;;;;;3.00;2.80;;;8.80;97.30;;;;;;5008710;28;20418;-91
2022/09/22 07:18:39;;;;;;;4.93;1.80;;;8.90;97.30;;;;;;5035929;28;20447;-93
2022/09/22 07:21:07;;;;;;;4.33;2.37;;;9.00;97.30;;;;;;5034462;28;20451;-93
2022/09/22 07:23:34;;;;;;;6.60;4.70;;;9.10;97.30;;;;;;5043147;22;20457;-90
2022/09/22 07:26:01;;;;;;;2.90;2.63;;;9.20;97.30;;;;;;5000867;28;20524;-89
2022/09/22 07:28:28;;;;;;;2.30;2.10;;;9.30;97.30;;;;;;4973625;28;20449;-87
2022/09/22 07:30:56;;;;;;;2.67;2.47;;;9.40;97.30;;;;;;4984069;28;20425;-88
2022/09/22 07:33:22;;;;;;;3.00;2.90;;;9.50;97.30;;;;;;4976339;28;21035;-87
2022/09/22 07:35:57;;;;;;;2.70;2.00;;;9.60;97.30;;;;;;5015565;28;20446;-88
2022/09/22 07:38:28;;;;;;;4.40;2.73;;;9.70;97.30;;;;;;4998192;28;20510;-87
2022/09/22 07:40:54;;;;;;;4.60;3.07;;;9.80;97.30;;;;;;4997384;28;20416;-86
2022/09/22 07:43:19;;;;;;;3.60;3.40;;;9.90;97.30;;;;;;4997894;28;20428;-83
2022/09/22 07:45:58;;;;;;;3.63;2.70;;;10.00;97.30;;;;;;5001783;28;20185;-87
2022/09/22 07:48:44;;;;;;;3.17;2.97;;;10.10;97.30;;;;;;5015479;28;20193;-86
2022/09/22 07:51:18;;;;;;;4.20;2.43;;;10.20;97.30;;;;;;4998112;28;20420;-89
2022/09/22 07:53:46;;;;;;;3.97;1.70;;;10.20;97.30;;;;;;4999485;28;20848;-86
2022/09/22 07:56:13;;;;;;;2.93;2.77;;;10.30;97.30;;;;;;5000621;28;20426;-86
2022/09/22 07:58:52;;;;;;;5.30;2.80;;;10.40;97.30;;;;;;4999912;28;20507;-88
2022/09/22 08:01:19;;;;;;;7.57;2.73;;;10.50;97.30;;;;;;5020551;28;20427;-87
2022/09/22 08:03:46;;;;;;;4.37;3.47;;;10.60;97.30;;;;;;5000209;28;20882;-87
2022/09/22 08:06:13;;;;;;;4.20;2.60;;;10.70;97.30;;;;;;4997336;28;20428;-86
2022/09/22 08:08:59;;;;;;;3.50;2.03;;;10.80;97.30;;;;;;4997593;28;20447;-86
2022/09/22 08:11:27;;;;;;;2.27;2.07;;;11.00;97.30;;;;;;4997757;28;20797;-87
2022/09/22 08:14:01;;;;;;;3.80;2.83;;;11.10;97.30;;;;;;4999757;28;20439;-86
2022/09/22 08:16:29;;;;;;;2.90;2.63;;;11.20;97.30;;;;;;4999320;28;20424;-87
2022/09/22 08:18:56;;;;;;;4.30;3.27;;;11.30;97.30;;;;;;4993632;28;20579;-88
2022/09/22 08:21:29;;;;;;;3.83;2.90;;;11.40;97.30;;;;;;4996849;28;20431;-87
2022/09/22 08:23:55;;;;;;;3.50;2.80;;;11.40;97.30;;;;;;4996748;28;20982;-86
2022/09/22 08:26:21;;;;;;;2.90;2.70;;;11.50;97.30;;;;;;4997021;28;20451;-87
2022/09/22 08:28:51;;;;;;;2.53;1.83;;;11.50;97.30;;;;;;4994569;28;20295;-87
2022/09/22 08:31:19;;;;;;;2.63;2.30;;;11.60;97.30;;;;;;4996819;28;20420;-88
2022/09/22 08:33:46;;;;;;;3.27;2.60;;;11.60;97.30;;;;;;4996624;28;21000;-88
2022/09/22 08:36:11;;;;;;;4.87;1.67;;;11.70;97.30;;;;;;5029467;28;20408;-88
2022/09/22 08:38:38;;;;;;;2.43;2.13;;;11.80;97.30;;;;;;4996701;28;20981;-88
2022/09/22 08:41:14;;;;;;;2.23;2.07;;;11.90;97.30;;;;;;5029645;28;20188;-88
2022/09/22 08:43:54;;;;;;;1.50;1.40;;;12.00;97.30;;;;;;4996698;28;20456;-87
2022/09/22 08:46:25;;;;;;;2.70;2.30;;;12.10;97.30;;;;;;4996200;28;20451;-88
2022/09/22 08:51:52;;;;;;;7.03;2.30;;;12.30;97.30;;;;;;5015997;28;20481;-87
2022/09/22 08:54:19;;;;;;;2.00;1.83;;;12.40;97.30;;;;;;4999810;28;20435;-87
2022/09/22 08:57:15;;;;;;;2.00;1.57;;;12.40;97.30;;;;;;5029023;28;20930;-87
2022/09/22 08:59:43;;;;;;;1.73;1.60;;;12.50;97.30;;;;;;5016272;28;20415;-88
2022/09/22 09:02:30;;;;;;;2.97;2.80;;;12.60;97.30;;;;;;5036519;28;20408;-88
2022/09/22 09:05:39;;;;;;;2.40;2.20;;;12.60;97.30;;;;;;5019270;28;20459;-87
2022/09/22 09:08:34;;;;;;;3.40;2.03;;;12.70;97.30;;;;;;5001952;28;20448;-87
2022/09/22 09:11:18;;;;;;;1.80;1.40;;;12.80;97.30;;;;;;5002235;28;20422;-87
2022/09/22 09:14:29;;;;;;;9.40;2.20;;;12.90;97.30;;;;;;5017027;28;20478;-87
2022/09/22 09:17:07;;;;;;;2.33;1.40;;;13.00;97.30;;;;;;4926912;28;20417;-87
2022/09/22 09:19:41;;;;;;;5.30;2.67;;;13.10;97.30;;;;;;5010655;28;20495;-88
2022/09/22 09:22:23;;;;;;;1.20;1.10;;;13.10;97.30;;;;;;5028995;28;20515;-88
2022/09/22 09:24:54;;;;;;;1.33;1.23;;;13.30;97.30;;;;;;4996226;28;20813;-87
2022/09/22 09:27:27;;;;;;;1.70;1.60;;;13.40;97.30;;;;;;4998493;28;20491;-87
2022/09/22 09:30:00;;;;;;;2.90;2.70;;;13.50;97.30;;;;;;4998964;28;20435;-87
2022/09/22 09:33:03;;;;;;;1.77;1.47;;;13.60;97.30;;;;;;5002408;28;20470;-87
2022/09/22 09:35:55;;;;;;;2.90;1.77;;;13.60;97.30;;;;;;5006905;28;20439;-87
2022/09/22 09:38:34;;;;;;;1.40;1.40;;;13.60;97.30;;;;;;4996245;28;20420;-87
2022/09/22 09:41:11;;;;;;;1.87;1.77;;;13.60;97.30;;;;;;5015685;28;20412;-87
2022/09/22 09:43:41;;;;;;;2.13;1.70;;;13.50;97.30;;;;;;4999459;28;21054;-87
2022/09/22 09:46:10;;;;;;;1.47;1.37;;;13.60;97.30;;;;;;5024524;28;20423;-87
2022/09/22 09:49:13;;;;;;;2.90;1.40;;;13.70;97.30;;;;;;4994996;28;20457;-87
2022/09/22 09:51:42;;;;;;;1.57;1.47;;;13.80;97.30;;;;;;5003852;28;20464;-87
2022/09/22 09:54:27;;;;;;;1.40;1.30;;;13.90;97.30;;;;;;5014131;28;20531;-85
2022/09/22 09:57:14;;;;;;;1.57;1.33;;;14.00;97.30;;;;;;5014442;28;20455;-86
2022/09/22 10:02:39;;;;;;;1.23;1.03;;;14.20;97.30;;;;;;5020884;28;20411;-85
2022/09/22 10:05:18;;;;;;;1.70;1.30;;;14.20;97.30;;;;;;4997211;28;20531;-87
2022/09/22 10:07:49;;;;;;;1.73;1.63;;;14.30;97.30;;;;;;5029147;28;20534;-87
2022/09/22 10:10:36;;;;;;;1.20;1.10;;;14.30;97.30;;;;;;4992927;28;20466;-88
2022/09/22 10:13:05;;;;;;;1.33;1.23;;;14.30;97.30;;;;;;4992613;28;20416;-88
2022/09/22 10:15:33;;;;;;;1.60;1.50;;;14.40;97.30;;;;;;4993104;28;20451;-88
2022/09/22 10:17:59;;;;;;;3.13;1.80;;;14.50;97.30;;;;;;5008998;28;20432;-87
2022/09/22 10:20:45;;;;;;;3.13;1.30;;;14.60;95.70;;;;;;4993703;28;20421;-87
2022/09/22 10:23:31;;;;;;;2.10;1.43;;;14.70;96.60;;;;;;4979893;28;20420;-87
2022/09/22 10:26:25;;;;;;;0.90;0.90;;;14.90;96.90;;;;;;4993124;28;20432;-87
2022/09/22 10:29:17;;;;;;;6.30;2.07;;;15.00;95.00;;;;;;4985941;28;20836;-87
2022/09/22 10:32:25;;;;;;;4.17;1.77;;;15.20;96.50;;;;;;4992570;28;20519;-88
2022/09/22 10:34:58;;;;;;;1.50;1.40;;;15.30;96.40;;;;;;4968337;28;20484;-87
2022/09/22 10:37:27;;;;;;;1.33;1.23;;;15.20;95.00;;;;;;4993146;28;20455;-87
2022/09/22 10:39:59;;;;;;;1.43;1.33;;;15.00;95.10;;;;;;4993616;28;20412;-87
2022/09/22 10:42:39;;;;;;;3.87;3.67;;;14.90;94.80;;;;;;4993084;28;20420;-88
2022/09/22 10:45:06;;;;;;;1.30;1.20;;;14.80;95.30;;;;;;5010679;28;20432;-87
2022/09/22 10:47:39;;;;;;;1.00;0.90;;;14.80;94.90;;;;;;4992730;28;20977;-87
2022/09/22 10:50:40;;;;;;;1.10;1.00;;;14.80;95.30;;;;;;4992898;28;20478;-87
2022/09/22 10:53:26;;;;;;;1.20;1.10;;;15.00;95.60;;;;;;4992490;28;20569;-87
2022/09/22 10:55:55;;;;;;;2.07;1.50;;;15.20;95.40;;;;;;4993764;28;20463;-87
2022/09/22 10:58:25;;;;;;;1.50;1.37;;;15.30;95.10;;;;;;4994699;28;20412;-87
2022/09/22 11:01:09;;;;;;;2.00;1.57;;;15.50;94.90;;;;;;4995205;28;20431;-87
2022/09/22 11:03:46;;;;;;;1.50;1.30;;;15.60;94.40;;;;;;5020940;28;20442;-86
2022/09/22 11:12:22;;;;;;;1.10;1.00;;;16.00;91.60;;;;;;5003602;28;20406;-87
2022/09/22 11:15:10;;;;;;;1.17;1.13;;;16.00;91.40;;;;;;4992712;28;20548;-87
2022/09/22 11:18:13;;;;;;;1.10;0.83;;;16.10;90.40;;;;;;4966432;28;20670;-87
2022/09/22 11:20:42;;;;;;;1.03;0.97;;;16.20;89.50;;;;;;4996303;28;20423;-87
2022/09/22 11:24:07;;;;;;;1.10;1.00;;;16.30;89.40;;;;;;4996294;28;20403;-87
2022/09/22 11:26:58;;;;;;;1.20;1.10;;;16.30;89.10;;;;;;5013144;28;20420;-86
2022/09/22 11:29:43;;;;;;;1.10;1.00;;;16.50;89.20;;;;;;4996442;28;20428;-88
2022/09/22 11:32:28;;;;;;;0.90;0.90;;;16.60;89.60;;;;;;4996247;28;20446;-87
2022/09/22 11:35:28;;;;;;;1.83;1.00;;;16.60;89.40;;;;;;4996840;28;20502;-86
2022/09/22 11:38:34;;;;;;;0.87;0.83;;;16.70;90.10;;;;;;5001753;28;20953;-87
2022/09/22 11:41:30;;;;;;;1.27;1.00;;;16.90;90.10;;;;;;4988112;28;20511;-85
2022/09/22 11:44:22;;;;;;;1.13;1.07;;;17.00;89.60;;;;;;5028958;28;20444;-87
2022/09/22 11:47:14;;;;;;;0.90;0.80;;;17.20;90.10;;;;;;4996499;28;20418;-87
2022/09/22 11:49:58;;;;;;;1.03;0.93;;;17.30;90.40;;;;;;4996076;28;20947;-87
2022/09/22 11:52:41;;;;;;;1.57;1.30;;;17.40;87.20;;;;;;4999967;28;20504;-87
2022/09/22 11:55:28;;;;;;;1.07;0.97;;;17.50;87.20;;;;;;4995665;28;20470;-87
2022/09/22 11:57:59;;;;;;;1.30;1.10;;;17.50;85.00;;;;;;4995648;28;20424;-87
2022/09/22 12:00:28;;;;;;;1.00;0.90;;;17.60;87.00;;;;;;5001360;28;20404;-87
2022/09/22 12:03:12;;;;;;;1.60;0.90;;;17.70;85.40;;;;;;5012729;28;20499;-87
2022/09/22 12:05:46;;;;;;;0.70;0.70;;;17.70;85.10;;;;;;5013772;28;20503;-87
2022/09/22 12:08:22;;;;;;;0.83;0.80;;;17.50;84.60;;;;;;4995091;28;20994;-87
2022/09/22 12:10:49;;;;;;;1.30;1.20;;;17.40;85.50;;;;;;4995418;28;20408;-87
2022/09/22 12:13:19;;;;;;;1.17;1.07;;;17.50;86.40;;;;;;4996279;28;20931;-86
2022/09/22 12:16:08;;;;;;;1.00;0.90;;;17.70;86.70;;;;;;5014540;28;20462;-86
2022/09/22 12:18:36;;;;;;;0.90;0.80;;;18.00;87.70;;;;;;5005268;28;20507;-86
2022/09/22 12:21:56;;;;;;;1.10;1.00;;;18.20;86.80;;;;;;4998201;28;20430;-86
2022/09/22 12:24:23;;;;;;;1.00;0.90;;;18.50;85.40;;;;;;4991480;28;20551;-86
2022/09/22 12:26:49;;;;;;;1.10;1.00;;;18.50;83.80;;;;;;5011834;28;20420;-86
2022/09/22 12:29:15;;;;;;;1.50;1.07;;;18.40;84.10;;;;;;4978864;28;20842;-86
2022/09/22 12:31:43;;;;;;;1.00;0.90;;;18.20;84.40;;;;;;4976297;28;20435;-85
2022/09/22 12:34:19;;;;;;;1.00;0.90;;;18.00;84.30;;;;;;4993331;28;20285;-86
2022/09/22 12:36:46;;;;;;;1.20;1.10;;;17.80;84.70;;;;;;5009079;28;20844;-86
2022/09/22 12:39:23;;;;;;;1.10;1.00;;;17.50;85.10;;;;;;4977867;28;20425;-86
2022/09/22 12:41:55;;;;;;;0.90;0.90;;;17.20;85.10;;;;;;4976621;28;20431;-86
2022/09/22 12:44:24;;;;;;;1.13;1.00;;;17.00;86.20;;;;;;4976069;28;20462;-85
2022/09/22 12:46:51;;;;;;;0.90;0.90;;;16.70;86.20;;;;;;4976523;28;20950;-86
2022/09/22 12:49:21;;;;;;;1.10;1.00;;;16.50;86.60;;;;;;5009105;28;20539;-86
2022/09/22 12:51:47;;;;;;;1.47;1.37;;;16.40;87.60;;;;;;4976231;28;20917;-86
2022/09/22 12:54:21;;;;;;;0.90;0.80;;;16.30;88.30;;;;;;4967766;28;20669;-87
2022/09/22 12:56:58;;;;;;;1.57;1.47;;;16.20;87.60;;;;;;4992629;28;20579;-86
2022/09/22 12:59:55;;;;;;;0.90;0.80;;;16.30;88.40;;;;;;4973894;28;20484;-86
2022/09/22 13:02:29;;;;;;;1.37;1.20;;;16.70;88.80;;;;;;4991025;28;20515;-86
2022/09/22 13:04:55;;;;;;;1.37;1.20;;;17.10;86.80;;;;;;5002341;28;20432;-86
2022/09/22 13:07:32;;;;;;;0.90;0.80;;;17.40;86.70;;;;;;4976985;28;20484;-86
2022/09/22 13:10:26;;;;;;;0.87;0.83;;;17.80;86.10;;;;;;4976147;28;20181;-86
2022/09/22 13:15:50;;;;;;;1.13;1.03;;;18.40;83.90;;;;;;4993075;28;20448;-87
2022/09/22 13:18:34;;;;;;;1.00;0.90;;;18.60;83.20;;;;;;4980006;28;20425;-87
2022/09/22 13:21:12;;;;;;;1.00;1.00;;;18.70;83.90;;;;;;4990858;28;20936;-86
2022/09/22 13:23:49;;;;;;;2.60;0.90;;;18.90;82.70;;;;;;4989003;28;20481;-87
2022/09/22 13:26:20;;;;;;;1.13;1.03;;;18.90;81.10;;;;;;5044321;23;20639;-87
2022/09/22 13:29:35;;;;;;;0.90;0.80;;;18.90;80.60;;;;;;5011343;28;20552;-86
2022/09/22 13:32:13;;;;;;;1.50;1.23;;;18.80;80.20;;;;;;4970123;28;20453;-87
2022/09/22 13:34:38;;;;;;;1.10;1.00;;;19.00;80.30;;;;;;5013949;28;20488;-85
2022/09/22 13:37:07;;;;;;;1.03;1.00;;;19.20;82.50;;;;;;5034992;28;20833;-87
2022/09/22 13:39:36;;;;;;;0.70;0.70;;;19.40;82.50;;;;;;5041314;28;20184;-88
2022/09/22 13:42:15;;;;;;;1.03;0.93;;;19.60;79.70;;;;;;5025982;28;20441;-88
2022/09/22 13:44:46;;;;;;;1.13;1.03;;;19.70;79.10;;;;;;5024952;28;20450;-88